Huvudsida
METAR-TAF:

METAR-TAF

Flygplatser :

Mitiga International Airport

Tripoli, Libyen

latitud: 32-54N, longitud: 13-17E, höjd: 11 m

METAR: saknas

Tid: 14:43 (12:43 UTC)

Väderprognos

Denna rapport gjordes för 1 timme och 43 minuter sedan, klockan 11:00 UTC
Prognos gäller från 16 kl. 12 UTC till 17 kl. 12 UTC
Vind 12 kt från nord/nordväst
Sikt: 8000 m
Få moln på en höjd av 3000 ft
Blir
från 16 kl. 20 UTC till 16 kl. 22 UTC
Vind 2 kt varierande vindriktning
Temporärt
mellan 17 och 00 UTC
Sikt: 4000 m
fuktdis

TAF: HLLM 161100Z 1612/1712 34012KT 8000 FEW030 BECMG 1620/1622 VRB02KT TEMPO 1700 1706 4000 BR NSC

Aktuella väderrapporter och prognoser från 4000 flygplatser (METAR- och TAF-rapporter).

De tillgängliga stationerna syns som gula och röda prickar på kartan.

För musen över prickarna för att se namnen på stationerna.

Klicka sedan för att få väderrapporter och prognoser.

För att ändra kartan: Klicka på de gröna knapparna med ett svart kors på för att zooma in; den gröna knappen med ett streck på för att zooma ut; eller på de gröna pilarna för angränsande kartor.


METAR-TAF: